sensor_id;sensor_type;location;lat;lon;timestamp;temperature;humidity
21502;DHT22;27639;48.674;9.242;2024-03-17T00:02:17;12.20;59.20
21502;DHT22;27639;48.674;9.242;2024-03-17T00:04:44;12.20;59.20
21502;DHT22;27639;48.674;9.242;2024-03-17T00:07:11;12.20;59.20
21502;DHT22;27639;48.674;9.242;2024-03-17T00:09:36;12.10;59.20
21502;DHT22;27639;48.674;9.242;2024-03-17T00:12:02;12.00;59.10
21502;DHT22;27639;48.674;9.242;2024-03-17T00:14:27;12.00;59.10
21502;DHT22;27639;48.674;9.242;2024-03-17T00:16:53;12.00;59.10
21502;DHT22;27639;48.674;9.242;2024-03-17T00:19:19;12.00;59.10
21502;DHT22;27639;48.674;9.242;2024-03-17T00:21:47;12.00;59.10
21502;DHT22;27639;48.674;9.242;2024-03-17T00:24:13;12.00;59.10
21502;DHT22;27639;48.674;9.242;2024-03-17T00:26:39;12.00;59.10
21502;DHT22;27639;48.674;9.242;2024-03-17T00:29:04;12.00;59.10
21502;DHT22;27639;48.674;9.242;2024-03-17T00:31:31;12.00;59.10
21502;DHT22;27639;48.674;9.242;2024-03-17T00:33:57;11.90;59.00
21502;DHT22;27639;48.674;9.242;2024-03-17T00:36:23;11.90;59.30
21502;DHT22;27639;48.674;9.242;2024-03-17T00:38:48;11.80;59.30
21502;DHT22;27639;48.674;9.242;2024-03-17T00:41:14;11.70;59.40
21502;DHT22;27639;48.674;9.242;2024-03-17T00:43:41;11.70;59.60
21502;DHT22;27639;48.674;9.242;2024-03-17T00:46:06;11.70;59.80
21502;DHT22;27639;48.674;9.242;2024-03-17T00:48:32;11.60;59.80
21502;DHT22;27639;48.674;9.242;2024-03-17T00:50:58;11.70;60.00
21502;DHT22;27639;48.674;9.242;2024-03-17T00:53:24;11.70;60.00
21502;DHT22;27639;48.674;9.242;2024-03-17T00:55:54;11.70;60.00
21502;DHT22;27639;48.674;9.242;2024-03-17T00:58:22;11.70;60.00
21502;DHT22;27639;48.674;9.242;2024-03-17T01:00:48;11.80;60.00
21502;DHT22;27639;48.674;9.242;2024-03-17T01:03:15;11.70;59.90
21502;DHT22;27639;48.674;9.242;2024-03-17T01:05:41;11.80;59.90
21502;DHT22;27639;48.674;9.242;2024-03-17T01:08:09;11.80;59.80
21502;DHT22;27639;48.674;9.242;2024-03-17T01:10:38;11.80;59.70
21502;DHT22;27639;48.674;9.242;2024-03-17T01:13:05;11.80;59.70
21502;DHT22;27639;48.674;9.242;2024-03-17T01:15:30;11.80;59.70
21502;DHT22;27639;48.674;9.242;2024-03-17T01:17:56;11.80;59.70
21502;DHT22;27639;48.674;9.242;2024-03-17T01:20:22;11.80;59.70
21502;DHT22;27639;48.674;9.242;2024-03-17T01:22:47;11.70;59.80
21502;DHT22;27639;48.674;9.242;2024-03-17T01:25:13;11.70;59.90
21502;DHT22;27639;48.674;9.242;2024-03-17T01:27:38;11.70;60.00
21502;DHT22;27639;48.674;9.242;2024-03-17T01:30:04;11.70;60.00
21502;DHT22;27639;48.674;9.242;2024-03-17T01:32:30;11.70;60.00
21502;DHT22;27639;48.674;9.242;2024-03-17T01:34:56;11.70;60.10
21502;DHT22;27639;48.674;9.242;2024-03-17T01:37:21;11.70;60.10
21502;DHT22;27639;48.674;9.242;2024-03-17T01:39:47;11.70;60.20
21502;DHT22;27639;48.674;9.242;2024-03-17T01:42:14;11.70;60.20
21502;DHT22;27639;48.674;9.242;2024-03-17T01:44:40;11.70;60.10
21502;DHT22;27639;48.674;9.242;2024-03-17T01:47:05;11.80;60.20
21502;DHT22;27639;48.674;9.242;2024-03-17T01:49:34;11.80;60.20
21502;DHT22;27639;48.674;9.242;2024-03-17T01:52:00;11.70;60.10
21502;DHT22;27639;48.674;9.242;2024-03-17T01:54:25;11.70;60.10
21502;DHT22;27639;48.674;9.242;2024-03-17T01:56:51;11.70;60.10
21502;DHT22;27639;48.674;9.242;2024-03-17T01:59:18;11.70;60.10
21502;DHT22;27639;48.674;9.242;2024-03-17T02:01:44;11.70;60.10
21502;DHT22;27639;48.674;9.242;2024-03-17T02:04:09;11.70;60.00
21502;DHT22;27639;48.674;9.242;2024-03-17T02:06:35;11.60;60.00
21502;DHT22;27639;48.674;9.242;2024-03-17T02:09:00;11.60;60.00
21502;DHT22;27639;48.674;9.242;2024-03-17T02:11:33;11.60;60.20
21502;DHT22;27639;48.674;9.242;2024-03-17T02:14:00;11.70;60.20
21502;DHT22;27639;48.674;9.242;2024-03-17T02:16:26;11.60;60.10
21502;DHT22;27639;48.674;9.242;2024-03-17T02:18:56;11.70;59.80
21502;DHT22;27639;48.674;9.242;2024-03-17T02:21:22;11.70;59.50
21502;DHT22;27639;48.674;9.242;2024-03-17T02:23:48;11.60;59.60
21502;DHT22;27639;48.674;9.242;2024-03-17T02:26:14;11.70;59.60
21502;DHT22;27639;48.674;9.242;2024-03-17T02:28:41;11.70;59.60
21502;DHT22;27639;48.674;9.242;2024-03-17T02:31:08;11.60;59.60
21502;DHT22;27639;48.674;9.242;2024-03-17T02:33:34;11.60;59.80
21502;DHT22;27639;48.674;9.242;2024-03-17T02:36:00;11.60;60.00
21502;DHT22;27639;48.674;9.242;2024-03-17T02:38:26;11.60;60.20
21502;DHT22;27639;48.674;9.242;2024-03-17T02:41:10;11.50;60.20
21502;DHT22;27639;48.674;9.242;2024-03-17T02:43:36;11.50;60.60
21502;DHT22;27639;48.674;9.242;2024-03-17T02:46:02;11.50;60.50
21502;DHT22;27639;48.674;9.242;2024-03-17T02:48:30;11.50;60.30
21502;DHT22;27639;48.674;9.242;2024-03-17T02:50:56;11.50;60.10
21502;DHT22;27639;48.674;9.242;2024-03-17T02:53:22;11.60;60.00
21502;DHT22;27639;48.674;9.242;2024-03-17T02:55:47;11.60;60.00
21502;DHT22;27639;48.674;9.242;2024-03-17T02:58:13;11.60;60.00
21502;DHT22;27639;48.674;9.242;2024-03-17T03:00:38;11.60;60.00
21502;DHT22;27639;48.674;9.242;2024-03-17T03:03:05;11.60;60.00
21502;DHT22;27639;48.674;9.242;2024-03-17T03:05:31;11.60;60.00
21502;DHT22;27639;48.674;9.242;2024-03-17T03:07:56;11.60;60.00
21502;DHT22;27639;48.674;9.242;2024-03-17T03:10:22;11.60;60.00
21502;DHT22;27639;48.674;9.242;2024-03-17T03:12:47;11.60;59.80
21502;DHT22;27639;48.674;9.242;2024-03-17T03:15:13;11.60;59.80
21502;DHT22;27639;48.674;9.242;2024-03-17T03:17:38;11.60;59.90
21502;DHT22;27639;48.674;9.242;2024-03-17T03:20:05;11.60;59.90
21502;DHT22;27639;48.674;9.242;2024-03-17T03:22:31;11.50;59.80
21502;DHT22;27639;48.674;9.242;2024-03-17T03:24:57;11.50;59.80
21502;DHT22;27639;48.674;9.242;2024-03-17T03:27:23;11.50;59.90
21502;DHT22;27639;48.674;9.242;2024-03-17T03:29:50;11.50;60.00
21502;DHT22;27639;48.674;9.242;2024-03-17T03:32:15;11.50;59.90
21502;DHT22;27639;48.674;9.242;2024-03-17T03:34:43;11.50;60.00
21502;DHT22;27639;48.674;9.242;2024-03-17T03:37:08;11.50;60.10
21502;DHT22;27639;48.674;9.242;2024-03-17T03:39:36;11.50;60.10
21502;DHT22;27639;48.674;9.242;2024-03-17T03:42:02;11.40;60.00
21502;DHT22;27639;48.674;9.242;2024-03-17T03:44:27;11.50;60.10
21502;DHT22;27639;48.674;9.242;2024-03-17T03:46:54;11.40;60.00
21502;DHT22;27639;48.674;9.242;2024-03-17T03:49:24;11.40;60.00
21502;DHT22;27639;48.674;9.242;2024-03-17T03:51:50;11.50;60.00
21502;DHT22;27639;48.674;9.242;2024-03-17T03:54:16;11.40;59.80
21502;DHT22;27639;48.674;9.242;2024-03-17T03:56:41;11.30;59.90
21502;DHT22;27639;48.674;9.242;2024-03-17T03:59:07;11.30;60.10
21502;DHT22;27639;48.674;9.242;2024-03-17T04:01:32;11.30;60.40
21502;DHT22;27639;48.674;9.242;2024-03-17T04:03:58;11.20;60.60
21502;DHT22;27639;48.674;9.242;2024-03-17T04:06:23;11.20;60.90
21502;DHT22;27639;48.674;9.242;2024-03-17T04:08:49;11.20;61.00
21502;DHT22;27639;48.674;9.242;2024-03-17T04:11:14;11.10;60.90
21502;DHT22;27639;48.674;9.242;2024-03-17T04:13:41;11.10;61.10
21502;DHT22;27639;48.674;9.242;2024-03-17T04:16:07;11.10;61.30
21502;DHT22;27639;48.674;9.242;2024-03-17T04:18:33;11.20;61.50
21502;DHT22;27639;48.674;9.242;2024-03-17T04:21:04;11.20;61.60
21502;DHT22;27639;48.674;9.242;2024-03-17T04:23:30;11.10;61.50
21502;DHT22;27639;48.674;9.242;2024-03-17T04:26:00;11.20;61.60
21502;DHT22;27639;48.674;9.242;2024-03-17T04:28:26;11.20;61.60
21502;DHT22;27639;48.674;9.242;2024-03-17T04:30:52;11.20;61.50
21502;DHT22;27639;48.674;9.242;2024-03-17T04:33:18;11.20;61.20
21502;DHT22;27639;48.674;9.242;2024-03-17T04:35:43;11.20;61.00
21502;DHT22;27639;48.674;9.242;2024-03-17T04:38:09;11.20;61.20
21502;DHT22;27639;48.674;9.242;2024-03-17T04:40:40;11.20;61.30
21502;DHT22;27639;48.674;9.242;2024-03-17T04:43:06;11.20;61.40
21502;DHT22;27639;48.674;9.242;2024-03-17T04:45:32;11.20;61.60
21502;DHT22;27639;48.674;9.242;2024-03-17T04:47:58;11.10;61.70
21502;DHT22;27639;48.674;9.242;2024-03-17T04:50:23;11.10;61.70
21502;DHT22;27639;48.674;9.242;2024-03-17T04:52:49;11.10;61.70
21502;DHT22;27639;48.674;9.242;2024-03-17T04:55:15;11.20;61.80
21502;DHT22;27639;48.674;9.242;2024-03-17T04:57:43;11.20;61.80
21502;DHT22;27639;48.674;9.242;2024-03-17T05:00:09;11.10;61.70
21502;DHT22;27639;48.674;9.242;2024-03-17T05:02:37;11.10;61.60
21502;DHT22;27639;48.674;9.242;2024-03-17T05:05:03;11.10;61.50
21502;DHT22;27639;48.674;9.242;2024-03-17T05:07:31;11.20;61.50
21502;DHT22;27639;48.674;9.242;2024-03-17T05:09:56;11.20;61.20
21502;DHT22;27639;48.674;9.242;2024-03-17T05:12:22;11.10;61.00
21502;DHT22;27639;48.674;9.242;2024-03-17T05:14:48;11.20;61.00
21502;DHT22;27639;48.674;9.242;2024-03-17T05:17:14;11.10;60.80
21502;DHT22;27639;48.674;9.242;2024-03-17T05:19:40;11.10;60.70
21502;DHT22;27639;48.674;9.242;2024-03-17T05:22:05;11.00;60.80
21502;DHT22;27639;48.674;9.242;2024-03-17T05:24:31;11.00;60.90
21502;DHT22;27639;48.674;9.242;2024-03-17T05:26:56;11.00;61.20
21502;DHT22;27639;48.674;9.242;2024-03-17T05:29:22;11.00;61.50
21502;DHT22;27639;48.674;9.242;2024-03-17T05:31:49;10.90;61.50
21502;DHT22;27639;48.674;9.242;2024-03-17T05:34:14;10.80;61.80
21502;DHT22;27639;48.674;9.242;2024-03-17T05:36:40;10.80;62.10
21502;DHT22;27639;48.674;9.242;2024-03-17T05:39:05;10.80;62.10
21502;DHT22;27639;48.674;9.242;2024-03-17T05:41:31;10.80;62.10
21502;DHT22;27639;48.674;9.242;2024-03-17T05:47:19;10.80;62.10
21502;DHT22;27639;48.674;9.242;2024-03-17T05:49:45;10.80;62.30
21502;DHT22;27639;48.674;9.242;2024-03-17T05:52:11;10.90;62.20
21502;DHT22;27639;48.674;9.242;2024-03-17T05:54:37;10.80;62.10
21502;DHT22;27639;48.674;9.242;2024-03-17T05:57:03;10.90;62.20
21502;DHT22;27639;48.674;9.242;2024-03-17T05:59:30;10.90;62.10
21502;DHT22;27639;48.674;9.242;2024-03-17T06:01:56;11.00;62.00
21502;DHT22;27639;48.674;9.242;2024-03-17T06:04:22;10.90;61.80
21502;DHT22;27639;48.674;9.242;2024-03-17T06:06:48;10.90;62.00
21502;DHT22;27639;48.674;9.242;2024-03-17T06:09:14;10.90;62.00
21502;DHT22;27639;48.674;9.242;2024-03-17T06:11:43;10.90;63.00
21502;DHT22;27639;48.674;9.242;2024-03-17T06:14:08;10.90;62.20
21502;DHT22;27639;48.674;9.242;2024-03-17T06:16:37;10.90;61.90
21502;DHT22;27639;48.674;9.242;2024-03-17T06:19:03;10.90;61.80
21502;DHT22;27639;48.674;9.242;2024-03-17T06:21:28;10.90;61.90
21502;DHT22;27639;48.674;9.242;2024-03-17T06:23:54;10.90;62.20
21502;DHT22;27639;48.674;9.242;2024-03-17T06:26:20;10.90;62.70
21502;DHT22;27639;48.674;9.242;2024-03-17T06:28:46;10.80;62.80
21502;DHT22;27639;48.674;9.242;2024-03-17T06:31:12;10.80;63.10
21502;DHT22;27639;48.674;9.242;2024-03-17T06:33:37;10.80;63.60
21502;DHT22;27639;48.674;9.242;2024-03-17T06:36:06;10.80;63.80
21502;DHT22;27639;48.674;9.242;2024-03-17T06:38:32;10.80;63.80
21502;DHT22;27639;48.674;9.242;2024-03-17T06:40:59;10.80;63.90
21502;DHT22;27639;48.674;9.242;2024-03-17T06:43:24;10.90;64.10
21502;DHT22;27639;48.674;9.242;2024-03-17T06:45:56;11.10;64.80
21502;DHT22;27639;48.674;9.242;2024-03-17T06:48:22;11.10;64.80
21502;DHT22;27639;48.674;9.242;2024-03-17T06:50:48;11.20;64.70
21502;DHT22;27639;48.674;9.242;2024-03-17T06:53:13;11.30;63.90
21502;DHT22;27639;48.674;9.242;2024-03-17T06:55:39;11.30;64.10
21502;DHT22;27639;48.674;9.242;2024-03-17T06:58:05;11.40;63.90
21502;DHT22;27639;48.674;9.242;2024-03-17T07:00:31;11.40;63.80
21502;DHT22;27639;48.674;9.242;2024-03-17T07:02:57;11.40;64.10
21502;DHT22;27639;48.674;9.242;2024-03-17T07:05:23;11.50;64.10
21502;DHT22;27639;48.674;9.242;2024-03-17T07:07:48;11.60;63.70
21502;DHT22;27639;48.674;9.242;2024-03-17T07:10:14;11.70;63.40
21502;DHT22;27639;48.674;9.242;2024-03-17T07:12:41;11.80;63.20
21502;DHT22;27639;48.674;9.242;2024-03-17T07:15:08;11.90;63.20
21502;DHT22;27639;48.674;9.242;2024-03-17T07:17:34;12.00;63.20
21502;DHT22;27639;48.674;9.242;2024-03-17T07:20:00;12.20;62.90
21502;DHT22;27639;48.674;9.242;2024-03-17T07:22:26;12.30;62.70
21502;DHT22;27639;48.674;9.242;2024-03-17T07:24:53;12.40;62.70
21502;DHT22;27639;48.674;9.242;2024-03-17T07:27:22;12.50;62.50
21502;DHT22;27639;48.674;9.242;2024-03-17T07:29:48;12.50;62.20
21502;DHT22;27639;48.674;9.242;2024-03-17T07:32:13;12.70;61.70
21502;DHT22;27639;48.674;9.242;2024-03-17T07:34:39;12.70;61.30
21502;DHT22;27639;48.674;9.242;2024-03-17T07:37:05;12.80;60.70
21502;DHT22;27639;48.674;9.242;2024-03-17T07:39:30;12.80;60.80
21502;DHT22;27639;48.674;9.242;2024-03-17T07:42:00;12.90;61.30
21502;DHT22;27639;48.674;9.242;2024-03-17T07:44:29;12.90;60.80
21502;DHT22;27639;48.674;9.242;2024-03-17T07:47:00;13.00;59.90
21502;DHT22;27639;48.674;9.242;2024-03-17T07:49:26;13.00;60.20
21502;DHT22;27639;48.674;9.242;2024-03-17T07:51:51;12.90;60.30
21502;DHT22;27639;48.674;9.242;2024-03-17T07:54:17;13.00;60.90
21502;DHT22;27639;48.674;9.242;2024-03-17T07:56:44;13.20;61.00
21502;DHT22;27639;48.674;9.242;2024-03-17T07:59:11;13.30;60.30
21502;DHT22;27639;48.674;9.242;2024-03-17T08:01:39;13.40;60.20
21502;DHT22;27639;48.674;9.242;2024-03-17T08:04:05;13.40;60.20
21502;DHT22;27639;48.674;9.242;2024-03-17T08:06:30;13.50;60.00
21502;DHT22;27639;48.674;9.242;2024-03-17T08:08:56;13.60;59.80
21502;DHT22;27639;48.674;9.242;2024-03-17T08:11:22;13.80;59.40
21502;DHT22;27639;48.674;9.242;2024-03-17T08:13:48;13.80;59.30
21502;DHT22;27639;48.674;9.242;2024-03-17T08:16:14;13.80;59.10
21502;DHT22;27639;48.674;9.242;2024-03-17T08:18:39;13.80;58.80
21502;DHT22;27639;48.674;9.242;2024-03-17T08:21:06;13.80;59.00
21502;DHT22;27639;48.674;9.242;2024-03-17T08:23:32;13.90;58.90
21502;DHT22;27639;48.674;9.242;2024-03-17T08:29:13;14.00;59.00
21502;DHT22;27639;48.674;9.242;2024-03-17T08:31:39;14.10;59.30
21502;DHT22;27639;48.674;9.242;2024-03-17T08:34:04;14.20;59.10
21502;DHT22;27639;48.674;9.242;2024-03-17T08:36:30;14.30;58.70
21502;DHT22;27639;48.674;9.242;2024-03-17T08:38:56;14.40;58.50
21502;DHT22;27639;48.674;9.242;2024-03-17T08:41:24;14.40;57.70
21502;DHT22;27639;48.674;9.242;2024-03-17T08:43:49;14.50;57.30
21502;DHT22;27639;48.674;9.242;2024-03-17T08:46:15;14.50;57.40
21502;DHT22;27639;48.674;9.242;2024-03-17T08:48:41;14.40;57.20
21502;DHT22;27639;48.674;9.242;2024-03-17T08:51:10;14.50;57.50
21502;DHT22;27639;48.674;9.242;2024-03-17T08:53:36;14.50;57.50
21502;DHT22;27639;48.674;9.242;2024-03-17T08:56:04;14.60;57.60
21502;DHT22;27639;48.674;9.242;2024-03-17T08:58:31;14.70;57.80
21502;DHT22;27639;48.674;9.242;2024-03-17T09:00:57;14.90;57.70
21502;DHT22;27639;48.674;9.242;2024-03-17T09:03:22;15.00;57.30
21502;DHT22;27639;48.674;9.242;2024-03-17T09:05:49;15.10;57.50
21502;DHT22;27639;48.674;9.242;2024-03-17T09:08:17;15.20;57.50
21502;DHT22;27639;48.674;9.242;2024-03-17T09:10:45;15.30;57.60
21502;DHT22;27639;48.674;9.242;2024-03-17T09:13:24;15.40;57.70
21502;DHT22;27639;48.674;9.242;2024-03-17T09:15:58;15.50;57.20
21502;DHT22;27639;48.674;9.242;2024-03-17T09:18:28;15.60;56.70
21502;DHT22;27639;48.674;9.242;2024-03-17T09:21:00;15.80;56.40
21502;DHT22;27639;48.674;9.242;2024-03-17T09:23:27;15.90;55.60
21502;DHT22;27639;48.674;9.242;2024-03-17T09:26:07;15.90;55.40
21502;DHT22;27639;48.674;9.242;2024-03-17T09:28:38;15.90;55.10
21502;DHT22;27639;48.674;9.242;2024-03-17T09:31:04;15.90;56.00
21502;DHT22;27639;48.674;9.242;2024-03-17T09:33:33;16.00;56.00
21502;DHT22;27639;48.674;9.242;2024-03-17T09:36:03;16.10;55.80
21502;DHT22;27639;48.674;9.242;2024-03-17T09:38:31;16.20;55.30
21502;DHT22;27639;48.674;9.242;2024-03-17T09:40:57;16.30;55.20
21502;DHT22;27639;48.674;9.242;2024-03-17T09:43:24;16.50;54.90
21502;DHT22;27639;48.674;9.242;2024-03-17T09:45:53;16.50;54.50
21502;DHT22;27639;48.674;9.242;2024-03-17T09:48:26;16.60;54.30
21502;DHT22;27639;48.674;9.242;2024-03-17T09:50:59;16.60;54.00
21502;DHT22;27639;48.674;9.242;2024-03-17T09:53:28;16.50;54.10
21502;DHT22;27639;48.674;9.242;2024-03-17T09:56:08;16.60;53.40
21502;DHT22;27639;48.674;9.242;2024-03-17T09:58:34;16.70;53.30
21502;DHT22;27639;48.674;9.242;2024-03-17T10:01:00;16.80;53.50
21502;DHT22;27639;48.674;9.242;2024-03-17T10:03:45;16.70;53.30
21502;DHT22;27639;48.674;9.242;2024-03-17T10:06:15;16.80;53.00
21502;DHT22;27639;48.674;9.242;2024-03-17T10:08:42;16.80;52.60
21502;DHT22;27639;48.674;9.242;2024-03-17T10:11:08;16.80;52.20
21502;DHT22;27639;48.674;9.242;2024-03-17T10:13:34;16.90;51.90
21502;DHT22;27639;48.674;9.242;2024-03-17T10:16:00;17.00;51.90
21502;DHT22;27639;48.674;9.242;2024-03-17T10:18:25;17.10;51.10
21502;DHT22;27639;48.674;9.242;2024-03-17T10:20:51;17.20;50.90
21502;DHT22;27639;48.674;9.242;2024-03-17T10:23:24;17.40;50.50
21502;DHT22;27639;48.674;9.242;2024-03-17T10:25:49;17.40;50.20
21502;DHT22;27639;48.674;9.242;2024-03-17T10:28:16;17.30;50.00
21502;DHT22;27639;48.674;9.242;2024-03-17T10:31:00;17.40;51.10
21502;DHT22;27639;48.674;9.242;2024-03-17T10:33:26;17.40;49.80
21502;DHT22;27639;48.674;9.242;2024-03-17T10:35:58;17.40;49.70
21502;DHT22;27639;48.674;9.242;2024-03-17T10:38:26;17.40;49.30
21502;DHT22;27639;48.674;9.242;2024-03-17T10:40:52;17.50;49.30
21502;DHT22;27639;48.674;9.242;2024-03-17T10:43:18;17.60;49.00
21502;DHT22;27639;48.674;9.242;2024-03-17T10:45:51;17.70;49.00
21502;DHT22;27639;48.674;9.242;2024-03-17T10:48:20;17.60;49.30
21502;DHT22;27639;48.674;9.242;2024-03-17T10:50:48;17.70;49.00
21502;DHT22;27639;48.674;9.242;2024-03-17T10:53:18;17.70;49.10
21502;DHT22;27639;48.674;9.242;2024-03-17T10:56:00;17.80;48.40
21502;DHT22;27639;48.674;9.242;2024-03-17T11:01:01;18.10;47.50
21502;DHT22;27639;48.674;9.242;2024-03-17T11:03:33;18.10;46.90
21502;DHT22;27639;48.674;9.242;2024-03-17T11:06:01;18.10;46.80
21502;DHT22;27639;48.674;9.242;2024-03-17T11:08:30;18.00;47.00
21502;DHT22;27639;48.674;9.242;2024-03-17T11:10:58;18.00;47.50
21502;DHT22;27639;48.674;9.242;2024-03-17T11:13:25;18.00;47.20
21502;DHT22;27639;48.674;9.242;2024-03-17T11:15:52;18.10;46.60
21502;DHT22;27639;48.674;9.242;2024-03-17T11:21:04;18.00;47.50
21502;DHT22;27639;48.674;9.242;2024-03-17T11:23:36;18.00;47.40
21502;DHT22;27639;48.674;9.242;2024-03-17T11:26:05;17.90;47.50
21502;DHT22;27639;48.674;9.242;2024-03-17T11:28:45;17.90;47.50
21502;DHT22;27639;48.674;9.242;2024-03-17T11:31:44;17.80;47.10
21502;DHT22;27639;48.674;9.242;2024-03-17T11:34:32;17.90;47.30
21502;DHT22;27639;48.674;9.242;2024-03-17T11:36:59;18.00;47.40
21502;DHT22;27639;48.674;9.242;2024-03-17T11:39:50;17.90;47.10
21502;DHT22;27639;48.674;9.242;2024-03-17T11:42:22;18.00;46.80
21502;DHT22;27639;48.674;9.242;2024-03-17T11:45:02;18.20;47.40
21502;DHT22;27639;48.674;9.242;2024-03-17T11:47:39;18.30;47.00
21502;DHT22;27639;48.674;9.242;2024-03-17T11:50:07;18.30;46.80
21502;DHT22;27639;48.674;9.242;2024-03-17T11:52:35;18.40;46.90
21502;DHT22;27639;48.674;9.242;2024-03-17T11:55:01;18.40;47.10
21502;DHT22;27639;48.674;9.242;2024-03-17T11:57:27;18.50;46.90
21502;DHT22;27639;48.674;9.242;2024-03-17T11:59:56;18.50;46.20
21502;DHT22;27639;48.674;9.242;2024-03-17T12:02:27;18.60;46.00
21502;DHT22;27639;48.674;9.242;2024-03-17T12:04:56;18.60;46.00
21502;DHT22;27639;48.674;9.242;2024-03-17T12:07:23;18.60;46.30
21502;DHT22;27639;48.674;9.242;2024-03-17T12:09:50;18.60;46.80
21502;DHT22;27639;48.674;9.242;2024-03-17T12:12:23;18.60;47.10
21502;DHT22;27639;48.674;9.242;2024-03-17T12:14:51;18.60;47.30
21502;DHT22;27639;48.674;9.242;2024-03-17T12:17:21;18.70;47.60
21502;DHT22;27639;48.674;9.242;2024-03-17T12:19:48;18.70;47.10
21502;DHT22;27639;48.674;9.242;2024-03-17T12:22:22;18.60;46.80
21502;DHT22;27639;48.674;9.242;2024-03-17T12:24:55;18.70;46.90
21502;DHT22;27639;48.674;9.242;2024-03-17T12:27:22;18.80;46.80
21502;DHT22;27639;48.674;9.242;2024-03-17T12:29:50;18.70;46.40
21502;DHT22;27639;48.674;9.242;2024-03-17T12:32:17;18.70;47.10
21502;DHT22;27639;48.674;9.242;2024-03-17T12:34:45;18.60;46.50
21502;DHT22;27639;48.674;9.242;2024-03-17T12:37:19;18.70;46.70
21502;DHT22;27639;48.674;9.242;2024-03-17T12:39:45;18.80;46.90
21502;DHT22;27639;48.674;9.242;2024-03-17T12:42:12;18.80;46.80
21502;DHT22;27639;48.674;9.242;2024-03-17T12:44:55;18.90;46.80
21502;DHT22;27639;48.674;9.242;2024-03-17T12:47:21;18.90;46.30
21502;DHT22;27639;48.674;9.242;2024-03-17T12:49:52;18.80;46.30
21502;DHT22;27639;48.674;9.242;2024-03-17T12:52:28;18.80;45.90
21502;DHT22;27639;48.674;9.242;2024-03-17T12:55:01;18.80;45.50
21502;DHT22;27639;48.674;9.242;2024-03-17T12:57:47;18.80;45.50
21502;DHT22;27639;48.674;9.242;2024-03-17T13:00:31;18.80;45.20
21502;DHT22;27639;48.674;9.242;2024-03-17T13:02:58;18.80;45.10
21502;DHT22;27639;48.674;9.242;2024-03-17T13:05:24;18.80;45.00
21502;DHT22;27639;48.674;9.242;2024-03-17T13:07:50;18.80;44.80
21502;DHT22;27639;48.674;9.242;2024-03-17T13:10:17;18.80;44.90
21502;DHT22;27639;48.674;9.242;2024-03-17T13:12:47;18.70;44.40
21502;DHT22;27639;48.674;9.242;2024-03-17T13:15:15;18.70;44.60
21502;DHT22;27639;48.674;9.242;2024-03-17T13:17:44;18.70;44.30
21502;DHT22;27639;48.674;9.242;2024-03-17T13:20:17;18.80;44.40
21502;DHT22;27639;48.674;9.242;2024-03-17T13:22:46;18.80;44.40
21502;DHT22;27639;48.674;9.242;2024-03-17T13:25:14;18.80;44.30
21502;DHT22;27639;48.674;9.242;2024-03-17T13:27:41;18.80;44.30
21502;DHT22;27639;48.674;9.242;2024-03-17T13:30:07;18.90;44.30
21502;DHT22;27639;48.674;9.242;2024-03-17T13:32:35;18.90;44.50
21502;DHT22;27639;48.674;9.242;2024-03-17T13:35:00;18.90;44.30
21502;DHT22;27639;48.674;9.242;2024-03-17T13:37:27;19.00;44.40
21502;DHT22;27639;48.674;9.242;2024-03-17T13:39:52;19.00;44.50
21502;DHT22;27639;48.674;9.242;2024-03-17T13:42:18;19.00;44.50
21502;DHT22;27639;48.674;9.242;2024-03-17T13:44:43;19.00;44.40
21502;DHT22;27639;48.674;9.242;2024-03-17T13:47:09;19.00;44.40
21502;DHT22;27639;48.674;9.242;2024-03-17T13:49:34;19.00;44.40
21502;DHT22;27639;48.674;9.242;2024-03-17T13:52:00;19.00;44.40
21502;DHT22;27639;48.674;9.242;2024-03-17T13:54:25;19.00;44.20
21502;DHT22;27639;48.674;9.242;2024-03-17T13:56:53;19.10;44.40
21502;DHT22;27639;48.674;9.242;2024-03-17T13:59:18;19.10;44.30
21502;DHT22;27639;48.674;9.242;2024-03-17T14:01:44;19.20;44.20
21502;DHT22;27639;48.674;9.242;2024-03-17T14:04:13;19.20;43.70
21502;DHT22;27639;48.674;9.242;2024-03-17T14:06:41;19.20;43.90
21502;DHT22;27639;48.674;9.242;2024-03-17T14:09:08;19.20;43.70
21502;DHT22;27639;48.674;9.242;2024-03-17T14:11:35;19.00;43.40
21502;DHT22;27639;48.674;9.242;2024-03-17T14:14:00;19.00;43.80
21502;DHT22;27639;48.674;9.242;2024-03-17T14:16:26;19.10;43.90
21502;DHT22;27639;48.674;9.242;2024-03-17T14:18:51;19.10;44.00
21502;DHT22;27639;48.674;9.242;2024-03-17T14:21:17;19.20;43.90
21502;DHT22;27639;48.674;9.242;2024-03-17T14:23:42;19.20;44.20
21502;DHT22;27639;48.674;9.242;2024-03-17T14:26:10;19.20;43.90
21502;DHT22;27639;48.674;9.242;2024-03-17T14:28:36;19.20;43.30
21502;DHT22;27639;48.674;9.242;2024-03-17T14:31:02;19.20;43.60
21502;DHT22;27639;48.674;9.242;2024-03-17T14:33:27;19.30;43.20
21502;DHT22;27639;48.674;9.242;2024-03-17T14:35:59;19.30;42.80
21502;DHT22;27639;48.674;9.242;2024-03-17T14:38:25;19.40;42.80
21502;DHT22;27639;48.674;9.242;2024-03-17T14:40:54;19.40;43.40
21502;DHT22;27639;48.674;9.242;2024-03-17T14:43:20;19.30;43.50
21502;DHT22;27639;48.674;9.242;2024-03-17T14:45:46;19.20;43.20
21502;DHT22;27639;48.674;9.242;2024-03-17T14:48:12;19.10;43.40
21502;DHT22;27639;48.674;9.242;2024-03-17T14:50:39;19.20;43.40
21502;DHT22;27639;48.674;9.242;2024-03-17T14:53:04;19.20;43.10
21502;DHT22;27639;48.674;9.242;2024-03-17T14:55:30;19.30;42.70
21502;DHT22;27639;48.674;9.242;2024-03-17T14:57:56;19.40;42.70
21502;DHT22;27639;48.674;9.242;2024-03-17T15:00:22;19.40;42.80
21502;DHT22;27639;48.674;9.242;2024-03-17T15:02:50;19.40;43.20
21502;DHT22;27639;48.674;9.242;2024-03-17T15:05:17;19.30;43.30
21502;DHT22;27639;48.674;9.242;2024-03-17T15:07:44;19.30;43.60
21502;DHT22;27639;48.674;9.242;2024-03-17T15:10:10;19.20;43.60
21502;DHT22;27639;48.674;9.242;2024-03-17T15:12:37;19.20;43.60
21502;DHT22;27639;48.674;9.242;2024-03-17T15:15:06;19.20;43.40
21502;DHT22;27639;48.674;9.242;2024-03-17T15:17:34;19.30;43.10
21502;DHT22;27639;48.674;9.242;2024-03-17T15:19:59;19.30;43.10
21502;DHT22;27639;48.674;9.242;2024-03-17T15:22:25;19.30;43.00
21502;DHT22;27639;48.674;9.242;2024-03-17T15:24:52;19.30;42.80
21502;DHT22;27639;48.674;9.242;2024-03-17T15:27:18;19.40;42.80
21502;DHT22;27639;48.674;9.242;2024-03-17T15:29:44;19.40;43.30
21502;DHT22;27639;48.674;9.242;2024-03-17T15:32:09;19.40;43.20
21502;DHT22;27639;48.674;9.242;2024-03-17T15:34:36;19.30;42.80
21502;DHT22;27639;48.674;9.242;2024-03-17T15:37:03;19.30;42.70
21502;DHT22;27639;48.674;9.242;2024-03-17T15:39:29;19.30;42.70
21502;DHT22;27639;48.674;9.242;2024-03-17T15:41:54;19.20;42.60
21502;DHT22;27639;48.674;9.242;2024-03-17T15:44:20;19.20;42.70